createdAt,value
2022-12-04T00:00:16.163Z,0.597222
2022-12-04T00:05:16.290Z,0.606481
2022-12-04T00:10:15.885Z,0.608796
2022-12-04T00:15:26.803Z,0.611111
2022-12-04T00:20:18.499Z,0.622222
2022-12-04T00:25:18.446Z,0.613426
2022-12-04T00:30:18.346Z,0.625000
2022-12-04T00:35:18.561Z,0.648148
2022-12-04T00:40:18.445Z,0.659722
2022-12-04T00:45:18.402Z,0.659722
2022-12-04T00:50:18.368Z,0.668981
2022-12-04T00:55:18.327Z,0.666667
2022-12-04T01:00:18.436Z,0.666667
2022-12-04T01:05:18.405Z,0.666667
2022-12-04T01:10:18.337Z,0.662037
2022-12-04T01:15:18.895Z,0.668981
2022-12-04T01:20:18.727Z,0.666667
2022-12-04T01:25:18.388Z,0.666667
2022-12-04T01:30:18.359Z,0.668981
2022-12-04T01:35:18.496Z,0.664352
2022-12-04T01:40:18.411Z,0.659722
2022-12-04T01:45:18.537Z,0.652778
2022-12-04T01:50:18.359Z,0.636574
2022-12-04T01:55:18.316Z,0.622685
2022-12-04T02:00:18.873Z,0.611111
2022-12-04T02:05:18.284Z,0.608796
2022-12-04T02:10:18.766Z,0.606481
2022-12-04T02:15:18.572Z,0.608796
2022-12-04T02:20:18.395Z,0.606481
2022-12-04T02:25:18.265Z,0.606481
2022-12-04T02:30:18.324Z,0.604167
2022-12-04T02:35:18.346Z,0.599537
2022-12-04T02:40:16.016Z,0.578704
2022-12-04T02:45:15.795Z,0.564815
2022-12-04T02:50:15.852Z,0.562500
2022-12-04T02:55:15.836Z,0.567130
2022-12-04T03:00:15.871Z,0.590278
2022-12-04T03:05:16.274Z,0.585648
2022-12-04T03:10:15.828Z,0.587963
2022-12-04T03:15:15.833Z,0.574074
2022-12-04T03:20:15.893Z,0.567130
2022-12-04T03:25:15.845Z,0.555556
2022-12-04T03:30:15.992Z,0.555556
2022-12-04T03:35:16.171Z,0.555556
2022-12-04T03:40:15.905Z,0.555556
2022-12-04T03:45:16.002Z,0.555556
2022-12-04T03:50:15.878Z,0.557778
2022-12-04T03:55:15.946Z,0.555556
2022-12-04T04:00:15.892Z,0.555556
2022-12-04T04:05:15.817Z,0.555556
2022-12-04T04:10:15.839Z,0.555556
2022-12-04T04:15:15.764Z,0.555556
2022-12-04T04:20:15.781Z,0.555556
2022-12-04T04:25:15.822Z,0.555556
2022-12-04T04:30:16.214Z,0.560185
2022-12-04T04:35:15.837Z,0.573333
2022-12-04T04:40:15.815Z,0.574074
2022-12-04T04:45:15.855Z,0.585648
2022-12-04T04:50:15.754Z,0.592593
2022-12-04T04:55:15.845Z,0.606481
2022-12-04T05:00:15.759Z,0.611111
2022-12-04T05:05:15.865Z,0.608889
2022-12-04T05:10:15.815Z,0.615741
2022-12-04T05:15:15.843Z,0.620000
2022-12-04T05:20:15.780Z,0.636574
2022-12-04T05:25:15.841Z,0.638889
2022-12-04T05:30:15.772Z,0.655093
2022-12-04T05:35:15.743Z,0.657407
2022-12-04T05:40:16.125Z,0.666667
2022-12-04T05:45:15.733Z,0.666667
2022-12-04T05:50:15.843Z,0.671296
2022-12-04T05:55:15.771Z,0.673333
2022-12-04T06:00:15.836Z,0.685185
2022-12-04T06:05:15.739Z,0.694444
2022-12-04T06:10:16.187Z,0.706019
2022-12-04T06:15:15.905Z,0.713333
2022-12-04T06:20:16.152Z,0.719907
2022-12-04T06:25:16.239Z,0.722222
2022-12-04T06:30:15.787Z,0.722222
2022-12-04T06:35:15.699Z,0.724444
2022-12-04T06:40:15.980Z,0.731481
2022-12-04T06:45:15.990Z,0.747685
2022-12-04T06:50:15.894Z,0.756944
2022-12-04T06:55:15.792Z,0.766204
2022-12-04T07:00:15.773Z,0.773148
2022-12-04T07:05:16.173Z,0.775556
2022-12-04T07:10:15.794Z,0.777778
2022-12-04T07:15:15.960Z,0.780000
2022-12-04T07:20:15.883Z,0.784722
2022-12-04T07:25:15.727Z,0.812500
2022-12-04T07:30:16.153Z,0.833333
2022-12-04T07:35:15.719Z,0.835556
2022-12-04T07:40:15.768Z,0.854167
2022-12-04T07:45:16.166Z,0.879630
2022-12-04T07:50:15.814Z,0.893333
2022-12-04T07:55:21.621Z,0.931111
2022-12-04T08:00:15.796Z,0.937500
2022-12-04T08:05:15.779Z,0.957778
2022-12-04T08:10:16.107Z,0.976852
2022-12-04T08:15:16.056Z,0.997685
2022-12-04T08:20:16.004Z,1.002315
2022-12-04T08:25:15.775Z,1.043981
2022-12-04T08:30:15.813Z,1.069444
2022-12-04T08:35:15.670Z,1.106481
2022-12-04T08:40:16.169Z,1.129630
2022-12-04T08:45:15.727Z,1.150463
2022-12-04T08:50:16.200Z,1.127315
2022-12-04T08:55:15.850Z,1.111111
2022-12-04T09:00:15.827Z,1.111111
2022-12-04T09:05:15.883Z,1.111111
2022-12-04T09:10:15.742Z,1.145833
2022-12-04T09:15:15.875Z,1.168889
2022-12-04T09:20:15.876Z,1.204444
2022-12-04T09:25:15.681Z,1.247685
2022-12-04T09:30:15.763Z,1.275463
2022-12-04T09:35:15.690Z,1.277778
2022-12-04T09:40:15.882Z,1.277778
2022-12-04T09:45:15.664Z,1.280093
2022-12-04T09:50:15.999Z,1.277778
2022-12-04T09:55:15.768Z,1.277778
2022-12-04T10:00:15.888Z,1.256944
2022-12-04T10:05:15.631Z,1.266667
2022-12-04T10:10:15.692Z,1.282407
2022-12-04T10:15:15.890Z,1.291667
2022-12-04T10:20:15.797Z,1.284722
2022-12-04T10:25:15.725Z,1.297778
2022-12-04T10:30:15.650Z,1.304444
2022-12-04T10:35:15.620Z,1.328704
2022-12-04T10:40:15.782Z,1.351111
2022-12-04T10:45:15.658Z,1.409722
2022-12-04T10:50:15.662Z,1.432870
2022-12-04T10:55:15.719Z,1.444444
2022-12-04T11:00:15.819Z,1.446759
2022-12-04T11:05:15.874Z,1.449074
2022-12-04T11:10:15.659Z,1.486111
2022-12-04T11:15:15.842Z,1.517778
2022-12-04T11:20:15.803Z,1.553241
2022-12-04T11:25:15.685Z,1.583333
2022-12-04T11:30:15.544Z,1.592593
2022-12-04T11:35:16.092Z,1.590278
2022-12-04T11:40:16.038Z,1.648148
2022-12-04T11:45:15.751Z,1.666667
2022-12-04T11:50:16.066Z,1.685185
2022-12-04T11:55:15.730Z,1.708333
2022-12-04T12:00:15.985Z,1.722222
2022-12-04T12:05:15.822Z,1.733796
2022-12-04T12:10:15.981Z,1.740741
2022-12-04T12:15:15.661Z,1.773148
2022-12-04T12:20:15.974Z,1.782222
2022-12-04T12:25:15.627Z,1.814815
2022-12-04T12:30:15.952Z,1.831111
2022-12-04T12:35:15.664Z,1.835556
2022-12-04T12:40:19.730Z,1.844907
2022-12-04T12:45:15.769Z,1.833333
2022-12-04T12:50:15.770Z,1.840000
2022-12-04T12:55:15.777Z,1.858796
2022-12-04T13:00:15.931Z,1.888889
2022-12-04T13:05:15.580Z,1.898148
2022-12-04T13:10:15.694Z,1.932870
2022-12-04T13:15:15.635Z,1.958333
2022-12-04T13:20:15.614Z,1.997778
2022-12-04T13:25:15.697Z,2.013889
2022-12-04T13:30:15.637Z,2.004630
2022-12-04T13:35:15.696Z,2.028889
2022-12-04T13:40:15.839Z,2.034722
2022-12-04T13:45:15.655Z,2.055556
2022-12-04T13:50:15.612Z,2.055556
2022-12-04T13:55:15.713Z,2.055556
2022-12-04T14:00:15.644Z,2.057870
2022-12-04T14:05:15.597Z,2.057870
2022-12-04T14:10:15.647Z,2.093333
2022-12-04T14:15:15.579Z,2.150463
2022-12-04T14:20:15.708Z,2.208333
2022-12-04T14:25:15.600Z,2.264444
2022-12-04T14:30:15.575Z,2.280093
2022-12-04T14:35:15.610Z,2.324074
2022-12-04T14:40:16.319Z,2.335648
2022-12-04T14:45:15.944Z,2.340278
2022-12-04T14:50:15.543Z,2.358796
2022-12-04T14:55:18.092Z,2.379630
2022-12-04T15:00:18.459Z,2.417778
2022-12-04T15:05:18.156Z,2.460648
2022-12-04T15:10:18.382Z,2.483796
2022-12-04T15:15:18.098Z,2.520833
2022-12-04T15:20:18.198Z,2.530093
2022-12-04T15:25:18.063Z,2.546296
2022-12-04T15:30:18.181Z,2.555556
2022-12-04T15:35:18.128Z,2.553241
2022-12-04T15:40:18.152Z,2.550926
2022-12-04T15:45:18.053Z,2.557870
2022-12-04T15:55:18.012Z,2.576389
2022-12-04T16:00:18.101Z,2.581019
2022-12-04T16:05:18.136Z,2.569444
2022-12-04T16:10:18.140Z,2.574074
2022-12-04T16:15:18.376Z,2.557870
2022-12-04T16:20:18.081Z,2.560185
2022-12-04T16:25:18.096Z,2.553241
2022-12-04T16:30:18.362Z,2.555556
2022-12-04T16:35:18.061Z,2.560185
2022-12-04T16:40:18.062Z,2.574074
2022-12-04T16:45:18.020Z,2.587963
2022-12-04T16:50:18.021Z,2.590278
2022-12-04T16:55:18.416Z,2.611111
2022-12-04T17:00:18.396Z,2.638889
2022-12-04T17:05:18.016Z,2.645833
2022-12-04T17:10:23.418Z,2.629630
2022-12-04T17:15:18.008Z,2.655093
2022-12-04T17:20:18.141Z,2.664352
2022-12-04T17:25:18.155Z,2.687500
2022-12-04T17:30:18.173Z,2.722222
2022-12-04T17:35:18.083Z,2.768519
2022-12-04T17:40:18.121Z,2.798611
2022-12-04T17:45:18.134Z,2.828704
2022-12-04T17:50:18.119Z,2.837963
2022-12-04T17:55:18.220Z,2.877315
2022-12-04T18:00:18.445Z,2.888889
2022-12-04T18:05:17.930Z,2.888889
2022-12-04T18:10:18.082Z,2.932870
2022-12-04T18:15:18.037Z,2.928241
2022-12-04T18:20:18.308Z,2.939815
2022-12-04T18:25:18.115Z,2.946759
2022-12-04T18:30:18.181Z,2.979167
2022-12-04T18:35:18.074Z,3.020833
2022-12-04T18:40:18.034Z,3.050926
2022-12-04T18:45:18.137Z,3.050926
2022-12-04T18:50:18.147Z,3.057870
2022-12-04T18:55:15.469Z,3.083333
2022-12-04T19:00:16.301Z,3.111111
2022-12-04T19:05:15.524Z,3.113426
2022-12-04T19:10:15.662Z,3.127315
2022-12-04T19:15:15.663Z,3.136574
2022-12-04T19:20:15.639Z,3.162037
2022-12-04T19:25:15.718Z,3.199074
2022-12-04T19:30:15.507Z,3.248889
2022-12-04T19:35:15.496Z,3.273148
2022-12-04T19:40:15.640Z,3.275463
2022-12-04T19:45:15.479Z,3.254630
2022-12-04T19:50:15.582Z,3.250000
2022-12-04T19:55:15.606Z,3.259259
2022-12-04T20:00:15.495Z,3.254630
2022-12-04T20:05:15.627Z,3.250000
2022-12-04T20:10:15.535Z,3.259259
2022-12-04T20:15:15.528Z,3.275463
2022-12-04T20:20:15.786Z,3.277778
2022-12-04T20:25:15.539Z,3.277778
2022-12-04T20:30:15.858Z,3.282407
2022-12-04T20:35:15.741Z,3.312500
2022-12-04T20:40:15.483Z,3.321759
2022-12-04T20:45:15.527Z,3.335648
2022-12-04T20:50:15.517Z,3.333333
2022-12-04T20:55:15.570Z,3.322751
2022-12-04T21:00:15.552Z,3.289352
2022-12-04T21:05:18.193Z,3.291667
2022-12-04T21:10:18.172Z,3.288889
2022-12-04T21:15:18.211Z,3.277778
2022-12-04T21:20:18.115Z,3.263889
2022-12-04T21:25:18.191Z,3.215278
2022-12-04T21:30:18.216Z,3.185185
2022-12-04T21:35:17.916Z,3.189815
2022-12-04T21:40:18.184Z,3.192130
2022-12-04T21:45:18.145Z,3.166667
2022-12-04T21:50:18.027Z,3.166667
2022-12-04T21:55:17.994Z,3.152778
2022-12-04T22:00:18.029Z,3.136574
2022-12-04T22:05:18.222Z,3.108796
2022-12-04T22:10:17.898Z,3.078704
2022-12-04T22:15:18.087Z,3.055556
2022-12-04T22:20:17.960Z,3.046296
2022-12-04T22:25:18.575Z,3.023148
2022-12-04T22:30:18.347Z,3.004630
2022-12-04T22:35:18.268Z,3.000000
2022-12-04T22:40:17.961Z,2.993056
2022-12-04T22:45:18.054Z,2.953704
2022-12-04T22:50:17.954Z,2.905093
2022-12-04T22:55:17.962Z,2.884259
2022-12-04T23:00:18.139Z,2.849537
2022-12-04T23:05:18.153Z,2.833333
2022-12-04T23:10:17.914Z,2.828704
2022-12-04T23:15:17.992Z,2.817130
2022-12-04T23:20:17.965Z,2.817130
2022-12-04T23:25:17.941Z,2.798611
2022-12-04T23:30:21.381Z,2.796296
2022-12-04T23:35:17.907Z,2.784722
2022-12-04T23:40:18.242Z,2.780093
2022-12-04T23:45:18.008Z,2.803241
2022-12-04T23:50:18.133Z,2.828704
2022-12-04T23:55:17.846Z,2.837963
